sensor_id;sensor_type;location;lat;lon;timestamp;P1;durP1;ratioP1;P2;durP2;ratioP2
44670;SDS011;48397;53.016;-2.260;2023-04-24T00:33:55;27.48;;;11.20;;
44670;SDS011;48397;53.016;-2.260;2023-04-24T00:36:23;24.83;;;11.05;;
44670;SDS011;48397;53.016;-2.260;2023-04-24T00:38:53;28.27;;;11.02;;
44670;SDS011;48397;53.016;-2.260;2023-04-24T00:41:44;30.50;;;11.25;;
44670;SDS011;48397;53.016;-2.260;2023-04-24T00:44:33;26.27;;;8.27;;
44670;SDS011;48397;53.016;-2.260;2023-04-24T00:47:05;28.42;;;10.20;;
44670;SDS011;48397;53.016;-2.260;2023-04-24T00:49:34;28.27;;;9.55;;
44670;SDS011;48397;53.016;-2.260;2023-04-24T00:54:35;23.17;;;9.50;;
44670;SDS011;48397;53.016;-2.260;2023-04-24T00:57:07;28.65;;;9.70;;
44670;SDS011;48397;53.016;-2.260;2023-04-24T00:59:52;24.67;;;9.02;;
44670;SDS011;48397;53.016;-2.260;2023-04-24T01:02:23;24.38;;;8.02;;
44670;SDS011;48397;53.016;-2.260;2023-04-24T01:04:57;15.23;;;6.15;;
44670;SDS011;48397;53.016;-2.260;2023-04-24T01:10:22;18.92;;;6.65;;
44670;SDS011;48397;53.016;-2.260;2023-04-24T01:12:52;17.15;;;6.00;;
44670;SDS011;48397;53.016;-2.260;2023-04-24T01:15:21;12.23;;;4.38;;
44670;SDS011;48397;53.016;-2.260;2023-04-24T01:17:49;18.83;;;5.45;;
44670;SDS011;48397;53.016;-2.260;2023-04-24T01:20:17;18.60;;;6.30;;
44670;SDS011;48397;53.016;-2.260;2023-04-24T01:22:46;13.35;;;6.50;;
44670;SDS011;48397;53.016;-2.260;2023-04-24T01:25:14;16.75;;;6.05;;
44670;SDS011;48397;53.016;-2.260;2023-04-24T01:27:43;18.52;;;6.75;;
44670;SDS011;48397;53.016;-2.260;2023-04-24T01:30:12;17.95;;;7.00;;
44670;SDS011;48397;53.016;-2.260;2023-04-24T01:32:41;17.83;;;7.35;;
44670;SDS011;48397;53.016;-2.260;2023-04-24T01:35:12;8.55;;;4.60;;
44670;SDS011;48397;53.016;-2.260;2023-04-24T01:37:43;17.08;;;6.78;;
44670;SDS011;48397;53.016;-2.260;2023-04-24T01:40:16;11.52;;;4.80;;
44670;SDS011;48397;53.016;-2.260;2023-04-24T01:42:49;14.30;;;4.90;;
44670;SDS011;48397;53.016;-2.260;2023-04-24T01:45:19;14.05;;;5.97;;
44670;SDS011;48397;53.016;-2.260;2023-04-24T01:47:51;13.90;;;3.75;;
44670;SDS011;48397;53.016;-2.260;2023-04-24T01:50:23;11.15;;;3.85;;
44670;SDS011;48397;53.016;-2.260;2023-04-24T01:52:52;10.20;;;4.10;;
44670;SDS011;48397;53.016;-2.260;2023-04-24T01:55:20;6.13;;;2.80;;
44670;SDS011;48397;53.016;-2.260;2023-04-24T01:57:49;10.10;;;4.15;;
44670;SDS011;48397;53.016;-2.260;2023-04-24T02:00:20;6.82;;;2.55;;
44670;SDS011;48397;53.016;-2.260;2023-04-24T02:02:48;7.85;;;2.95;;
44670;SDS011;48397;53.016;-2.260;2023-04-24T02:05:19;15.93;;;3.85;;
44670;SDS011;48397;53.016;-2.260;2023-04-24T02:07:52;9.48;;;3.17;;
44670;SDS011;48397;53.016;-2.260;2023-04-24T02:10:22;13.60;;;2.97;;
44670;SDS011;48397;53.016;-2.260;2023-04-24T02:12:53;9.27;;;3.30;;
44670;SDS011;48397;53.016;-2.260;2023-04-24T02:15:24;9.13;;;3.55;;
44670;SDS011;48397;53.016;-2.260;2023-04-24T02:17:54;10.02;;;4.03;;
44670;SDS011;48397;53.016;-2.260;2023-04-24T02:20:33;11.65;;;3.63;;
44670;SDS011;48397;53.016;-2.260;2023-04-24T02:23:02;11.27;;;4.47;;
44670;SDS011;48397;53.016;-2.260;2023-04-24T02:25:30;16.60;;;4.25;;
44670;SDS011;48397;53.016;-2.260;2023-04-24T02:28:01;11.73;;;4.45;;
44670;SDS011;48397;53.016;-2.260;2023-04-24T02:30:34;8.43;;;3.33;;
44670;SDS011;48397;53.016;-2.260;2023-04-24T02:35:30;8.38;;;3.78;;
44670;SDS011;48397;53.016;-2.260;2023-04-24T02:37:58;11.05;;;3.92;;
44670;SDS011;48397;53.016;-2.260;2023-04-24T02:42:54;12.65;;;3.78;;
44670;SDS011;48397;53.016;-2.260;2023-04-24T02:45:23;11.15;;;3.60;;
44670;SDS011;48397;53.016;-2.260;2023-04-24T02:47:51;11.68;;;3.30;;
44670;SDS011;48397;53.016;-2.260;2023-04-24T02:50:19;12.60;;;3.95;;
44670;SDS011;48397;53.016;-2.260;2023-04-24T02:52:48;8.18;;;3.38;;
44670;SDS011;48397;53.016;-2.260;2023-04-24T02:55:16;8.93;;;3.60;;
44670;SDS011;48397;53.016;-2.260;2023-04-24T02:57:45;12.65;;;3.38;;
44670;SDS011;48397;53.016;-2.260;2023-04-24T03:00:13;7.45;;;3.20;;
44670;SDS011;48397;53.016;-2.260;2023-04-24T03:02:42;9.40;;;3.30;;
44670;SDS011;48397;53.016;-2.260;2023-04-24T03:05:11;8.30;;;3.40;;
44670;SDS011;48397;53.016;-2.260;2023-04-24T03:09:46;6.93;;;2.83;;
44670;SDS011;48397;53.016;-2.260;2023-04-24T03:12:15;11.13;;;2.97;;
44670;SDS011;48397;53.016;-2.260;2023-04-24T03:14:45;14.07;;;4.18;;
44670;SDS011;48397;53.016;-2.260;2023-04-24T03:17:13;9.10;;;4.15;;
44670;SDS011;48397;53.016;-2.260;2023-04-24T03:19:42;10.45;;;3.08;;
44670;SDS011;48397;53.016;-2.260;2023-04-24T03:22:12;12.57;;;3.95;;
44670;SDS011;48397;53.016;-2.260;2023-04-24T03:24:44;12.00;;;3.30;;
44670;SDS011;48397;53.016;-2.260;2023-04-24T03:27:42;9.20;;;3.47;;
44670;SDS011;48397;53.016;-2.260;2023-04-24T03:30:37;9.32;;;3.35;;
44670;SDS011;48397;53.016;-2.260;2023-04-24T03:33:06;11.82;;;3.97;;
44670;SDS011;48397;53.016;-2.260;2023-04-24T03:35:39;7.28;;;2.85;;
44670;SDS011;48397;53.016;-2.260;2023-04-24T03:38:11;10.57;;;3.05;;
44670;SDS011;48397;53.016;-2.260;2023-04-24T03:41:04;7.97;;;2.30;;
44670;SDS011;48397;53.016;-2.260;2023-04-24T03:43:47;6.10;;;2.55;;
44670;SDS011;48397;53.016;-2.260;2023-04-24T03:46:16;11.60;;;2.60;;
44670;SDS011;48397;53.016;-2.260;2023-04-24T03:48:52;7.97;;;2.97;;
44670;SDS011;48397;53.016;-2.260;2023-04-24T03:51:26;6.68;;;2.42;;
44670;SDS011;48397;53.016;-2.260;2023-04-24T03:54:02;10.80;;;2.50;;
44670;SDS011;48397;53.016;-2.260;2023-04-24T03:56:34;8.50;;;3.15;;
44670;SDS011;48397;53.016;-2.260;2023-04-24T03:59:02;5.25;;;2.60;;
44670;SDS011;48397;53.016;-2.260;2023-04-24T04:01:31;6.53;;;2.67;;
44670;SDS011;48397;53.016;-2.260;2023-04-24T04:04:06;7.72;;;2.80;;
44670;SDS011;48397;53.016;-2.260;2023-04-24T04:06:42;6.07;;;2.42;;
44670;SDS011;48397;53.016;-2.260;2023-04-24T04:09:17;6.93;;;2.88;;
44670;SDS011;48397;53.016;-2.260;2023-04-24T04:11:46;6.80;;;2.53;;
44670;SDS011;48397;53.016;-2.260;2023-04-24T04:14:14;12.25;;;3.22;;
44670;SDS011;48397;53.016;-2.260;2023-04-24T04:16:46;5.93;;;3.03;;
44670;SDS011;48397;53.016;-2.260;2023-04-24T04:19:17;7.25;;;2.90;;
44670;SDS011;48397;53.016;-2.260;2023-04-24T04:22:07;6.75;;;3.13;;
44670;SDS011;48397;53.016;-2.260;2023-04-24T04:24:46;10.13;;;3.37;;
44670;SDS011;48397;53.016;-2.260;2023-04-24T04:30:49;8.30;;;3.10;;
44670;SDS011;48397;53.016;-2.260;2023-04-24T04:33:27;8.07;;;3.45;;
44670;SDS011;48397;53.016;-2.260;2023-04-24T04:35:57;9.10;;;3.40;;
44670;SDS011;48397;53.016;-2.260;2023-04-24T04:38:29;7.10;;;3.35;;
44670;SDS011;48397;53.016;-2.260;2023-04-24T04:41:05;10.10;;;3.45;;
44670;SDS011;48397;53.016;-2.260;2023-04-24T04:43:41;7.90;;;2.92;;
44670;SDS011;48397;53.016;-2.260;2023-04-24T04:46:10;9.95;;;3.08;;
44670;SDS011;48397;53.016;-2.260;2023-04-24T04:48:59;8.15;;;3.40;;
44670;SDS011;48397;53.016;-2.260;2023-04-24T04:51:32;10.25;;;3.78;;
44670;SDS011;48397;53.016;-2.260;2023-04-24T04:54:02;8.05;;;3.42;;
44670;SDS011;48397;53.016;-2.260;2023-04-24T04:56:35;9.68;;;2.90;;
44670;SDS011;48397;53.016;-2.260;2023-04-24T04:59:12;9.70;;;3.83;;
44670;SDS011;48397;53.016;-2.260;2023-04-24T05:03:07;8.35;;;2.92;;
44670;SDS011;48397;53.016;-2.260;2023-04-24T05:06:20;9.23;;;3.40;;
44670;SDS011;48397;53.016;-2.260;2023-04-24T05:09:06;9.27;;;3.80;;
44670;SDS011;48397;53.016;-2.260;2023-04-24T05:11:59;10.18;;;4.03;;
44670;SDS011;48397;53.016;-2.260;2023-04-24T05:14:34;9.90;;;4.07;;
44670;SDS011;48397;53.016;-2.260;2023-04-24T05:17:03;9.35;;;3.42;;
44670;SDS011;48397;53.016;-2.260;2023-04-24T05:19:32;8.63;;;4.03;;
44670;SDS011;48397;53.016;-2.260;2023-04-24T05:22:04;10.80;;;4.00;;
44670;SDS011;48397;53.016;-2.260;2023-04-24T05:24:40;11.07;;;3.80;;
44670;SDS011;48397;53.016;-2.260;2023-04-24T05:27:29;10.13;;;3.72;;
44670;SDS011;48397;53.016;-2.260;2023-04-24T05:30:01;11.07;;;3.55;;
44670;SDS011;48397;53.016;-2.260;2023-04-24T05:32:30;10.05;;;3.55;;
44670;SDS011;48397;53.016;-2.260;2023-04-24T05:35:00;9.30;;;3.53;;
44670;SDS011;48397;53.016;-2.260;2023-04-24T05:37:29;10.73;;;4.18;;
44670;SDS011;48397;53.016;-2.260;2023-04-24T05:39:59;9.98;;;3.85;;
44670;SDS011;48397;53.016;-2.260;2023-04-24T05:42:29;13.30;;;4.05;;
44670;SDS011;48397;53.016;-2.260;2023-04-24T05:44:58;12.18;;;3.28;;
44670;SDS011;48397;53.016;-2.260;2023-04-24T05:47:27;12.00;;;4.03;;
44670;SDS011;48397;53.016;-2.260;2023-04-24T05:49:57;9.75;;;3.55;;
44670;SDS011;48397;53.016;-2.260;2023-04-24T05:52:26;10.77;;;4.00;;
44670;SDS011;48397;53.016;-2.260;2023-04-24T05:54:55;10.35;;;3.60;;
44670;SDS011;48397;53.016;-2.260;2023-04-24T05:57:28;8.60;;;3.28;;
44670;SDS011;48397;53.016;-2.260;2023-04-24T06:00:02;10.60;;;3.78;;
44670;SDS011;48397;53.016;-2.260;2023-04-24T06:02:59;15.02;;;3.55;;
44670;SDS011;48397;53.016;-2.260;2023-04-24T06:05:30;12.05;;;3.90;;
44670;SDS011;48397;53.016;-2.260;2023-04-24T06:08:03;13.27;;;3.10;;
44670;SDS011;48397;53.016;-2.260;2023-04-24T06:10:39;14.43;;;4.03;;
44670;SDS011;48397;53.016;-2.260;2023-04-24T06:13:23;4.72;;;1.48;;
44670;SDS011;48397;53.016;-2.260;2023-04-24T06:16:14;7.95;;;2.92;;
44670;SDS011;48397;53.016;-2.260;2023-04-24T06:18:51;4.63;;;2.27;;
44670;SDS011;48397;53.016;-2.260;2023-04-24T06:21:42;11.00;;;3.53;;
44670;SDS011;48397;53.016;-2.260;2023-04-24T06:27:09;10.63;;;4.43;;
44670;SDS011;48397;53.016;-2.260;2023-04-24T06:29:41;6.20;;;2.72;;
44670;SDS011;48397;53.016;-2.260;2023-04-24T06:32:11;3.67;;;1.77;;
44670;SDS011;48397;53.016;-2.260;2023-04-24T06:34:40;6.80;;;2.30;;
44670;SDS011;48397;53.016;-2.260;2023-04-24T06:37:14;4.68;;;2.70;;
44670;SDS011;48397;53.016;-2.260;2023-04-24T06:39:44;8.68;;;2.65;;
44670;SDS011;48397;53.016;-2.260;2023-04-24T06:42:12;8.85;;;3.17;;
44670;SDS011;48397;53.016;-2.260;2023-04-24T06:44:43;7.68;;;2.67;;
44670;SDS011;48397;53.016;-2.260;2023-04-24T06:47:12;7.32;;;2.80;;
44670;SDS011;48397;53.016;-2.260;2023-04-24T06:49:41;12.48;;;3.88;;
44670;SDS011;48397;53.016;-2.260;2023-04-24T06:52:09;8.68;;;3.30;;
44670;SDS011;48397;53.016;-2.260;2023-04-24T06:54:37;15.02;;;3.05;;
44670;SDS011;48397;53.016;-2.260;2023-04-24T06:57:09;2.72;;;1.30;;
44670;SDS011;48397;53.016;-2.260;2023-04-24T06:59:37;9.10;;;3.30;;
44670;SDS011;48397;53.016;-2.260;2023-04-24T07:02:06;8.30;;;3.03;;
44670;SDS011;48397;53.016;-2.260;2023-04-24T07:04:37;7.82;;;2.30;;
44670;SDS011;48397;53.016;-2.260;2023-04-24T07:07:22;8.00;;;2.55;;
44670;SDS011;48397;53.016;-2.260;2023-04-24T07:09:56;8.40;;;3.10;;
44670;SDS011;48397;53.016;-2.260;2023-04-24T07:12:25;6.38;;;2.28;;
44670;SDS011;48397;53.016;-2.260;2023-04-24T07:28:24;4.40;;;2.08;;
44670;SDS011;48397;53.016;-2.260;2023-04-24T07:30:53;5.07;;;1.67;;
44670;SDS011;48397;53.016;-2.260;2023-04-24T07:35:49;11.80;;;3.05;;
44670;SDS011;48397;53.016;-2.260;2023-04-24T07:40:48;7.00;;;2.90;;
44670;SDS011;48397;53.016;-2.260;2023-04-24T07:43:17;4.00;;;2.58;;
44670;SDS011;48397;53.016;-2.260;2023-04-24T07:45:47;3.58;;;1.80;;
44670;SDS011;48397;53.016;-2.260;2023-04-24T07:50:44;4.85;;;1.75;;
44670;SDS011;48397;53.016;-2.260;2023-04-24T07:55:40;7.90;;;2.45;;
44670;SDS011;48397;53.016;-2.260;2023-04-24T07:58:08;11.50;;;2.58;;
44670;SDS011;48397;53.016;-2.260;2023-04-24T08:08:06;9.48;;;1.95;;
44670;SDS011;48397;53.016;-2.260;2023-04-24T08:10:34;7.38;;;2.22;;
44670;SDS011;48397;53.016;-2.260;2023-04-24T08:13:52;4.32;;;1.85;;
44670;SDS011;48397;53.016;-2.260;2023-04-24T08:29:21;7.03;;;2.28;;
44670;SDS011;48397;53.016;-2.260;2023-04-24T08:31:50;5.13;;;2.28;;
44670;SDS011;48397;53.016;-2.260;2023-04-24T08:36:47;9.90;;;2.83;;
44670;SDS011;48397;53.016;-2.260;2023-04-24T08:41:44;6.90;;;1.98;;
44670;SDS011;48397;53.016;-2.260;2023-04-24T08:44:13;9.13;;;2.33;;
44670;SDS011;48397;53.016;-2.260;2023-04-24T08:46:43;7.55;;;1.73;;
44670;SDS011;48397;53.016;-2.260;2023-04-24T08:49:13;13.52;;;3.55;;
44670;SDS011;48397;53.016;-2.260;2023-04-24T08:51:45;4.82;;;2.17;;
44670;SDS011;48397;53.016;-2.260;2023-04-24T08:54:14;11.88;;;3.10;;
44670;SDS011;48397;53.016;-2.260;2023-04-24T08:56:43;7.68;;;2.55;;
44670;SDS011;48397;53.016;-2.260;2023-04-24T08:59:12;6.95;;;2.58;;
44670;SDS011;48397;53.016;-2.260;2023-04-24T09:01:41;11.63;;;2.88;;
44670;SDS011;48397;53.016;-2.260;2023-04-24T09:04:11;11.73;;;3.22;;
44670;SDS011;48397;53.016;-2.260;2023-04-24T09:06:43;9.40;;;1.80;;
44670;SDS011;48397;53.016;-2.260;2023-04-24T09:09:12;5.30;;;2.00;;
44670;SDS011;48397;53.016;-2.260;2023-04-24T09:11:40;13.02;;;3.95;;
44670;SDS011;48397;53.016;-2.260;2023-04-24T09:14:09;11.13;;;3.17;;
44670;SDS011;48397;53.016;-2.260;2023-04-24T09:16:37;9.35;;;2.58;;
44670;SDS011;48397;53.016;-2.260;2023-04-24T09:19:05;10.88;;;1.88;;
44670;SDS011;48397;53.016;-2.260;2023-04-24T09:21:34;14.70;;;3.03;;
44670;SDS011;48397;53.016;-2.260;2023-04-24T09:24:07;12.07;;;3.58;;
44670;SDS011;48397;53.016;-2.260;2023-04-24T09:26:41;10.13;;;2.58;;
44670;SDS011;48397;53.016;-2.260;2023-04-24T09:29:13;4.60;;;2.17;;
44670;SDS011;48397;53.016;-2.260;2023-04-24T09:31:44;5.47;;;1.80;;
44670;SDS011;48397;53.016;-2.260;2023-04-24T09:34:13;5.88;;;1.88;;
44670;SDS011;48397;53.016;-2.260;2023-04-24T09:36:43;13.15;;;4.10;;
44670;SDS011;48397;53.016;-2.260;2023-04-24T09:39:12;12.20;;;3.50;;
44670;SDS011;48397;53.016;-2.260;2023-04-24T09:44:27;7.75;;;2.50;;
44670;SDS011;48397;53.016;-2.260;2023-04-24T09:46:56;9.52;;;1.83;;
44670;SDS011;48397;53.016;-2.260;2023-04-24T09:49:28;10.57;;;2.33;;
44670;SDS011;48397;53.016;-2.260;2023-04-24T09:52:06;8.10;;;2.17;;
44670;SDS011;48397;53.016;-2.260;2023-04-24T09:54:37;15.52;;;3.90;;
44670;SDS011;48397;53.016;-2.260;2023-04-24T09:57:07;11.63;;;3.13;;
44670;SDS011;48397;53.016;-2.260;2023-04-24T09:59:41;12.80;;;4.15;;
44670;SDS011;48397;53.016;-2.260;2023-04-24T10:02:18;9.60;;;2.78;;
44670;SDS011;48397;53.016;-2.260;2023-04-24T10:04:57;6.43;;;2.20;;
44670;SDS011;48397;53.016;-2.260;2023-04-24T10:07:27;12.85;;;3.58;;
44670;SDS011;48397;53.016;-2.260;2023-04-24T10:09:55;12.27;;;2.85;;
44670;SDS011;48397;53.016;-2.260;2023-04-24T10:12:23;11.75;;;2.92;;
44670;SDS011;48397;53.016;-2.260;2023-04-24T10:14:53;9.55;;;2.15;;
44670;SDS011;48397;53.016;-2.260;2023-04-24T10:17:22;6.78;;;1.80;;
44670;SDS011;48397;53.016;-2.260;2023-04-24T10:19:58;7.18;;;2.20;;
44670;SDS011;48397;53.016;-2.260;2023-04-24T10:22:55;5.82;;;2.05;;
44670;SDS011;48397;53.016;-2.260;2023-04-24T10:25:34;4.50;;;1.98;;
44670;SDS011;48397;53.016;-2.260;2023-04-24T10:28:04;9.45;;;2.25;;
44670;SDS011;48397;53.016;-2.260;2023-04-24T10:30:35;10.23;;;2.90;;
44670;SDS011;48397;53.016;-2.260;2023-04-24T10:33:17;5.13;;;1.77;;
44670;SDS011;48397;53.016;-2.260;2023-04-24T10:40:07;5.13;;;2.92;;
44670;SDS011;48397;53.016;-2.260;2023-04-24T10:43:01;6.05;;;2.50;;
44670;SDS011;48397;53.016;-2.260;2023-04-24T10:45:39;11.70;;;2.70;;
44670;SDS011;48397;53.016;-2.260;2023-04-24T10:49:05;8.82;;;2.80;;
44670;SDS011;48397;53.016;-2.260;2023-04-24T10:52:16;11.82;;;3.42;;
44670;SDS011;48397;53.016;-2.260;2023-04-24T10:54:51;3.08;;;1.63;;
44670;SDS011;48397;53.016;-2.260;2023-04-24T11:02:15;11.10;;;2.83;;
44670;SDS011;48397;53.016;-2.260;2023-04-24T11:04:44;11.65;;;3.13;;
44670;SDS011;48397;53.016;-2.260;2023-04-24T11:07:15;9.68;;;3.00;;
44670;SDS011;48397;53.016;-2.260;2023-04-24T11:09:43;8.35;;;1.95;;
44670;SDS011;48397;53.016;-2.260;2023-04-24T11:12:11;5.72;;;2.60;;
44670;SDS011;48397;53.016;-2.260;2023-04-24T11:17:35;19.40;;;3.20;;
44670;SDS011;48397;53.016;-2.260;2023-04-24T11:20:06;4.78;;;1.95;;
44670;SDS011;48397;53.016;-2.260;2023-04-24T11:22:53;7.82;;;2.45;;
44670;SDS011;48397;53.016;-2.260;2023-04-24T11:25:22;3.90;;;1.70;;
44670;SDS011;48397;53.016;-2.260;2023-04-24T11:30:29;10.20;;;2.38;;
44670;SDS011;48397;53.016;-2.260;2023-04-24T11:33:05;3.42;;;1.58;;
44670;SDS011;48397;53.016;-2.260;2023-04-24T11:35:39;8.35;;;2.35;;
44670;SDS011;48397;53.016;-2.260;2023-04-24T11:38:07;2.60;;;1.50;;
44670;SDS011;48397;53.016;-2.260;2023-04-24T11:40:51;5.15;;;2.20;;
44670;SDS011;48397;53.016;-2.260;2023-04-24T11:43:20;11.77;;;2.30;;
44670;SDS011;48397;53.016;-2.260;2023-04-24T11:45:48;7.05;;;2.65;;
44670;SDS011;48397;53.016;-2.260;2023-04-24T11:48:19;8.35;;;2.03;;
44670;SDS011;48397;53.016;-2.260;2023-04-24T11:50:51;7.47;;;2.28;;
44670;SDS011;48397;53.016;-2.260;2023-04-24T11:53:20;6.53;;;2.42;;
44670;SDS011;48397;53.016;-2.260;2023-04-24T11:55:50;4.65;;;1.70;;
44670;SDS011;48397;53.016;-2.260;2023-04-24T11:58:21;5.93;;;2.30;;
44670;SDS011;48397;53.016;-2.260;2023-04-24T12:00:57;10.50;;;2.83;;
44670;SDS011;48397;53.016;-2.260;2023-04-24T12:03:27;5.57;;;1.63;;
44670;SDS011;48397;53.016;-2.260;2023-04-24T12:06:08;9.20;;;2.17;;
44670;SDS011;48397;53.016;-2.260;2023-04-24T12:08:39;6.53;;;2.75;;
44670;SDS011;48397;53.016;-2.260;2023-04-24T12:11:08;11.30;;;2.80;;
44670;SDS011;48397;53.016;-2.260;2023-04-24T12:13:36;11.48;;;2.85;;
44670;SDS011;48397;53.016;-2.260;2023-04-24T12:16:06;7.32;;;2.63;;
44670;SDS011;48397;53.016;-2.260;2023-04-24T12:18:41;11.10;;;3.05;;
44670;SDS011;48397;53.016;-2.260;2023-04-24T12:21:14;10.93;;;3.38;;
44670;SDS011;48397;53.016;-2.260;2023-04-24T12:23:49;6.68;;;2.05;;
44670;SDS011;48397;53.016;-2.260;2023-04-24T12:26:18;9.07;;;2.67;;
44670;SDS011;48397;53.016;-2.260;2023-04-24T12:28:49;12.73;;;2.63;;
44670;SDS011;48397;53.016;-2.260;2023-04-24T12:31:17;5.75;;;2.10;;
44670;SDS011;48397;53.016;-2.260;2023-04-24T12:33:47;8.85;;;2.90;;
44670;SDS011;48397;53.016;-2.260;2023-04-24T12:36:16;12.70;;;2.83;;
44670;SDS011;48397;53.016;-2.260;2023-04-24T12:38:44;9.68;;;2.78;;
44670;SDS011;48397;53.016;-2.260;2023-04-24T12:41:13;12.80;;;3.55;;
44670;SDS011;48397;53.016;-2.260;2023-04-24T12:43:51;9.35;;;3.35;;
44670;SDS011;48397;53.016;-2.260;2023-04-24T12:46:20;9.60;;;3.83;;
44670;SDS011;48397;53.016;-2.260;2023-04-24T12:48:48;12.00;;;3.30;;
44670;SDS011;48397;53.016;-2.260;2023-04-24T12:53:44;7.45;;;2.42;;
44670;SDS011;48397;53.016;-2.260;2023-04-24T12:58:41;8.27;;;3.10;;
44670;SDS011;48397;53.016;-2.260;2023-04-24T13:01:09;8.27;;;3.65;;
44670;SDS011;48397;53.016;-2.260;2023-04-24T13:03:37;5.00;;;2.38;;
44670;SDS011;48397;53.016;-2.260;2023-04-24T13:06:06;4.80;;;2.13;;
44670;SDS011;48397;53.016;-2.260;2023-04-24T13:13:31;6.78;;;2.63;;
44670;SDS011;48397;53.016;-2.260;2023-04-24T13:16:04;6.85;;;2.60;;
44670;SDS011;48397;53.016;-2.260;2023-04-24T13:18:32;7.50;;;2.17;;
44670;SDS011;48397;53.016;-2.260;2023-04-24T13:21:06;6.00;;;2.40;;
44670;SDS011;48397;53.016;-2.260;2023-04-24T13:23:36;11.18;;;3.10;;
44670;SDS011;48397;53.016;-2.260;2023-04-24T13:26:22;13.48;;;3.17;;
44670;SDS011;48397;53.016;-2.260;2023-04-24T13:29:54;8.82;;;2.55;;
44670;SDS011;48397;53.016;-2.260;2023-04-24T13:38:49;7.97;;;2.83;;
44670;SDS011;48397;53.016;-2.260;2023-04-24T13:41:17;10.85;;;3.53;;
44670;SDS011;48397;53.016;-2.260;2023-04-24T13:43:53;11.73;;;3.38;;
44670;SDS011;48397;53.016;-2.260;2023-04-24T13:46:36;9.18;;;3.50;;
44670;SDS011;48397;53.016;-2.260;2023-04-24T13:49:06;7.18;;;2.25;;
44670;SDS011;48397;53.016;-2.260;2023-04-24T13:54:53;7.95;;;3.05;;
44670;SDS011;48397;53.016;-2.260;2023-04-24T13:57:58;7.53;;;2.83;;
44670;SDS011;48397;53.016;-2.260;2023-04-24T14:00:39;10.88;;;3.40;;
44670;SDS011;48397;53.016;-2.260;2023-04-24T14:07:35;12.02;;;3.28;;
44670;SDS011;48397;53.016;-2.260;2023-04-24T14:11:16;9.52;;;3.15;;
44670;SDS011;48397;53.016;-2.260;2023-04-24T14:13:49;7.78;;;2.85;;
44670;SDS011;48397;53.016;-2.260;2023-04-24T14:16:19;7.45;;;3.17;;
44670;SDS011;48397;53.016;-2.260;2023-04-24T14:18:54;6.03;;;2.35;;
44670;SDS011;48397;53.016;-2.260;2023-04-24T14:21:37;4.88;;;2.50;;
44670;SDS011;48397;53.016;-2.260;2023-04-24T14:27:00;4.85;;;2.42;;
44670;SDS011;48397;53.016;-2.260;2023-04-24T14:29:35;4.40;;;1.95;;
44670;SDS011;48397;53.016;-2.260;2023-04-24T14:32:04;9.48;;;2.55;;
44670;SDS011;48397;53.016;-2.260;2023-04-24T14:34:32;9.95;;;2.20;;
44670;SDS011;48397;53.016;-2.260;2023-04-24T14:37:00;9.05;;;3.33;;
44670;SDS011;48397;53.016;-2.260;2023-04-24T14:39:28;9.95;;;3.03;;
44670;SDS011;48397;53.016;-2.260;2023-04-24T14:44:23;10.18;;;2.80;;
44670;SDS011;48397;53.016;-2.260;2023-04-24T14:46:52;8.93;;;3.15;;
44670;SDS011;48397;53.016;-2.260;2023-04-24T14:49:23;8.80;;;2.78;;
44670;SDS011;48397;53.016;-2.260;2023-04-24T14:51:53;11.00;;;3.10;;
44670;SDS011;48397;53.016;-2.260;2023-04-24T14:54:21;11.30;;;3.70;;
44670;SDS011;48397;53.016;-2.260;2023-04-24T14:56:50;11.20;;;3.60;;
44670;SDS011;48397;53.016;-2.260;2023-04-24T14:59:30;8.82;;;1.80;;
44670;SDS011;48397;53.016;-2.260;2023-04-24T15:02:14;5.05;;;1.88;;
44670;SDS011;48397;53.016;-2.260;2023-04-24T15:04:47;5.05;;;2.05;;
44670;SDS011;48397;53.016;-2.260;2023-04-24T15:07:16;9.02;;;2.78;;
44670;SDS011;48397;53.016;-2.260;2023-04-24T15:10:02;9.00;;;2.63;;
44670;SDS011;48397;53.016;-2.260;2023-04-24T15:12:30;5.22;;;1.95;;
44670;SDS011;48397;53.016;-2.260;2023-04-24T15:14:58;11.98;;;2.97;;
44670;SDS011;48397;53.016;-2.260;2023-04-24T15:17:27;4.45;;;2.30;;
44670;SDS011;48397;53.016;-2.260;2023-04-24T15:20:00;8.93;;;3.00;;
44670;SDS011;48397;53.016;-2.260;2023-04-24T15:22:30;12.85;;;3.38;;
44670;SDS011;48397;53.016;-2.260;2023-04-24T15:24:58;10.13;;;3.40;;
44670;SDS011;48397;53.016;-2.260;2023-04-24T15:27:27;6.45;;;2.38;;
44670;SDS011;48397;53.016;-2.260;2023-04-24T15:30:07;10.02;;;2.85;;
44670;SDS011;48397;53.016;-2.260;2023-04-24T15:32:36;5.95;;;2.50;;
44670;SDS011;48397;53.016;-2.260;2023-04-24T15:35:09;8.05;;;2.42;;
44670;SDS011;48397;53.016;-2.260;2023-04-24T15:37:38;5.68;;;2.20;;
44670;SDS011;48397;53.016;-2.260;2023-04-24T15:43:20;7.97;;;3.00;;
44670;SDS011;48397;53.016;-2.260;2023-04-24T15:47:11;6.82;;;2.85;;
44670;SDS011;48397;53.016;-2.260;2023-04-24T15:50:10;11.70;;;3.65;;
44670;SDS011;48397;53.016;-2.260;2023-04-24T15:54:01;6.40;;;2.90;;
44670;SDS011;48397;53.016;-2.260;2023-04-24T16:03:45;8.75;;;2.80;;
44670;SDS011;48397;53.016;-2.260;2023-04-24T16:07:43;12.10;;;3.65;;
44670;SDS011;48397;53.016;-2.260;2023-04-24T16:10:19;15.18;;;4.00;;
44670;SDS011;48397;53.016;-2.260;2023-04-24T16:12:46;11.00;;;3.25;;
44670;SDS011;48397;53.016;-2.260;2023-04-24T16:15:14;12.32;;;3.50;;
44670;SDS011;48397;53.016;-2.260;2023-04-24T16:17:42;8.68;;;3.33;;
44670;SDS011;48397;53.016;-2.260;2023-04-24T16:20:10;20.23;;;3.40;;
44670;SDS011;48397;53.016;-2.260;2023-04-24T16:22:41;7.18;;;3.22;;
44670;SDS011;48397;53.016;-2.260;2023-04-24T16:25:10;8.98;;;3.28;;
44670;SDS011;48397;53.016;-2.260;2023-04-24T16:27:38;12.70;;;2.75;;
44670;SDS011;48397;53.016;-2.260;2023-04-24T16:30:08;6.95;;;2.75;;
44670;SDS011;48397;53.016;-2.260;2023-04-24T16:32:36;4.28;;;2.38;;
44670;SDS011;48397;53.016;-2.260;2023-04-24T16:37:31;9.07;;;2.30;;
44670;SDS011;48397;53.016;-2.260;2023-04-24T16:39:59;10.48;;;2.60;;
44670;SDS011;48397;53.016;-2.260;2023-04-24T16:42:28;10.57;;;2.63;;
44670;SDS011;48397;53.016;-2.260;2023-04-24T16:44:56;6.93;;;2.35;;
44670;SDS011;48397;53.016;-2.260;2023-04-24T16:47:23;4.18;;;1.85;;
44670;SDS011;48397;53.016;-2.260;2023-04-24T16:49:54;3.95;;;1.83;;
44670;SDS011;48397;53.016;-2.260;2023-04-24T16:52:22;3.03;;;1.67;;
44670;SDS011;48397;53.016;-2.260;2023-04-24T16:58:03;5.90;;;2.15;;
44670;SDS011;48397;53.016;-2.260;2023-04-24T17:00:31;5.30;;;2.38;;
44670;SDS011;48397;53.016;-2.260;2023-04-24T17:03:00;9.57;;;2.88;;
44670;SDS011;48397;53.016;-2.260;2023-04-24T17:05:28;6.88;;;2.50;;
44670;SDS011;48397;53.016;-2.260;2023-04-24T17:07:56;11.18;;;2.28;;
44670;SDS011;48397;53.016;-2.260;2023-04-24T17:10:24;6.85;;;1.95;;
44670;SDS011;48397;53.016;-2.260;2023-04-24T17:12:52;12.38;;;2.92;;
44670;SDS011;48397;53.016;-2.260;2023-04-24T17:15:21;11.65;;;3.50;;
44670;SDS011;48397;53.016;-2.260;2023-04-24T17:17:49;7.78;;;2.63;;
44670;SDS011;48397;53.016;-2.260;2023-04-24T17:20:17;5.85;;;1.95;;
44670;SDS011;48397;53.016;-2.260;2023-04-24T17:22:49;12.98;;;3.58;;
44670;SDS011;48397;53.016;-2.260;2023-04-24T17:25:17;10.02;;;2.92;;
44670;SDS011;48397;53.016;-2.260;2023-04-24T17:30:13;12.55;;;4.13;;
44670;SDS011;48397;53.016;-2.260;2023-04-24T17:32:43;12.55;;;3.35;;
44670;SDS011;48397;53.016;-2.260;2023-04-24T17:35:11;13.07;;;3.30;;
44670;SDS011;48397;53.016;-2.260;2023-04-24T17:37:39;9.52;;;3.13;;
44670;SDS011;48397;53.016;-2.260;2023-04-24T17:42:35;10.20;;;3.28;;
44670;SDS011;48397;53.016;-2.260;2023-04-24T17:45:07;14.27;;;3.30;;
44670;SDS011;48397;53.016;-2.260;2023-04-24T17:47:36;11.07;;;3.38;;
44670;SDS011;48397;53.016;-2.260;2023-04-24T17:50:04;8.23;;;2.25;;
44670;SDS011;48397;53.016;-2.260;2023-04-24T17:52:32;11.27;;;3.92;;
44670;SDS011;48397;53.016;-2.260;2023-04-24T17:55:01;6.97;;;3.33;;